2000 KIRRILY (2000024S11100)


On this page: IBTrACS data - Map and Plots - Positions - Intensities - Original source data

Summary

Start Jan 24
End Feb 2
Basin SI
LMI 85 kt
Sources jtwc_sh
bom
neumann
In WMO? Yes
Previous storm 2000 JO (SP)
Previous in basin 2000 MISSING (SI)
Concurrent storms 2000 TD (SP)
2000 JO (SP)
2000 KIRRILY (SI)
2000 CONNIE (SI)
2000 DAMIENNE (SI)
2000 ELINE (SI)
Next in basin 2000 CONNIE (SI)
Next storm 2000 CONNIE (SI)

top of page IBTrACS Data: File Access

top of page HURSAT Data: File Access

Image of storm

top of page Plots:

Map of storm track will not appear if FTP is down
Time series of cyclone Maximum Sustained Wind will not appear if FTP is down
Time series of cyclone Minimum Central Pressure will not appear if FTP is down

top of page Track Data:Position

jtwc_sh bom neumann
Date Lat Lon Lat Lon Lat Lon
2000-01-24 06:00:00 -11.5 100.2
2000-01-24 12:00:00 -11.8 102.6 -11.5 101.4 -11.8 102.6
2000-01-24 18:00:00 -12.0 103.2 -11.8 102.7 -12.0 103.2
2000-01-25 00:00:00 -12.3 104.0 -12.3 103.9 -12.3 104.0
2000-01-25 06:00:00 -12.6 105.3 -12.8 105.3 -12.6 105.3
2000-01-25 12:00:00 -12.8 106.1 -13.0 106.5 -12.8 106.1
2000-01-25 18:00:00 -13.0 106.9 -13.2 107.5 -13.0 106.9
2000-01-26 00:00:00 -13.5 108.4 -13.5 108.7 -13.5 108.4
2000-01-26 06:00:00 -14.1 109.8 -14.2 109.8 -14.1 109.8
2000-01-26 12:00:00 -14.9 110.7 -15.0 110.6 -14.9 110.7
2000-01-26 18:00:00 -15.7 111.6 -15.8 111.4 -15.7 111.6
2000-01-27 00:00:00 -16.4 112.3 -16.5 112.1 -16.4 112.3
2000-01-27 06:00:00 -17.1 112.4 -16.9 112.5 -17.1 112.4
2000-01-27 12:00:00 -17.8 112.2 -17.1 112.2 -17.8 112.2
2000-01-27 18:00:00 -18.2 111.8 -17.6 111.1 -18.2 111.8
2000-01-28 00:00:00 -18.4 111.0 -18.0 110.3 -18.4 111.0
2000-01-28 06:00:00 -18.5 110.1 -18.5 109.9 -18.5 110.1
2000-01-28 12:00:00 -18.8 109.4 -18.9 109.5 -18.8 109.4
2000-01-28 18:00:00 -19.2 108.8 -19.4 108.9 -19.2 108.8
2000-01-29 00:00:00 -19.7 108.2 -19.9 108.2 -19.7 108.2
2000-01-29 06:00:00 -20.3 107.5 -20.4 107.6 -20.3 107.5
2000-01-29 12:00:00 -20.9 107.0 -20.9 107.0 -20.9 107.0
2000-01-29 18:00:00 -21.4 106.5 -21.4 106.5 -21.4 106.5
2000-01-30 00:00:00 -21.9 106.1 -21.8 106.0 -21.9 106.1
2000-01-30 06:00:00 -22.6 105.8 -22.5 105.6 -22.6 105.8
jtwc_sh bom neumann
2000-01-30 12:00:00 -23.1 105.7 -23.2 105.6 -23.1 105.7
2000-01-30 18:00:00 -23.3 105.6 -23.4 105.6 -23.3 105.6
2000-01-31 00:00:00 -23.4 105.5 -23.6 105.5 -23.4 105.5
2000-01-31 06:00:00 -23.4 105.3 -23.6 105.4 -23.4 105.3
2000-01-31 12:00:00 -23.1 105.2 -23.4 105.3 -23.1 105.2
2000-01-31 18:00:00 -22.9 105.0 -23.0 105.0 -22.9 105.0
2000-02-01 00:00:00 -22.6 104.7 -22.7 104.8 -22.6 104.7
2000-02-01 06:00:00 -22.4 104.1 -22.6 104.7 -22.4 104.1
2000-02-01 12:00:00 -22.1 103.5 -22.6 104.7 -22.1 103.5
2000-02-01 18:00:00 -21.9 102.9 -22.6 104.8 -21.9 102.9
2000-02-02 00:00:00 -22.7 104.8

top of pageTrack Data:Intensity

jtwc_sh bom neumann
Date Wind Pres Wind Pres Wind Pres
2000-01-24 06:00:00 27. 1000.
2000-01-24 12:00:00 25. 27. 1000. 25.
2000-01-24 18:00:00 20. 27. 1000. 20.
2000-01-25 00:00:00 20. 27. 1000. 20.
2000-01-25 06:00:00 25. 27. 1000. 25.
2000-01-25 12:00:00 25. 27. 1000. 25.
2000-01-25 18:00:00 25. 27. 1000. 25.
2000-01-26 00:00:00 25. 27. 1000. 25.
2000-01-26 06:00:00 25. 27. 1000. 25.
2000-01-26 12:00:00 25. 29. 998. 25.
2000-01-26 18:00:00 25. 35. 995. 25.
2000-01-27 00:00:00 25. 35. 995. 25.
2000-01-27 06:00:00 30. 35. 995. 30.
2000-01-27 12:00:00 30. 41. 990. 30.
2000-01-27 18:00:00 30. 49. 985. 30.
2000-01-28 00:00:00 35. 49. 985. 35.
2000-01-28 06:00:00 50. 49. 985. 50.
2000-01-28 12:00:00 55. 49. 985. 55.
2000-01-28 18:00:00 65. 49. 985. 65.
2000-01-29 00:00:00 70. 54. 980. 70.
2000-01-29 06:00:00 80. 60. 975. 80.
2000-01-29 12:00:00 85. 60. 975. 85.
2000-01-29 18:00:00 75. 60. 975. 75.
2000-01-30 00:00:00 70. 60. 975. 70.
2000-01-30 06:00:00 65. 54. 980. 65.
jtwc_sh bom neumann
2000-01-30 12:00:00 65. 54. 980. 65.
2000-01-30 18:00:00 55. 49. 985. 55.
2000-01-31 00:00:00 45. 41. 990. 45.
2000-01-31 06:00:00 35. 41. 990. 35.
2000-01-31 12:00:00 35. 35. 995. 35.
2000-01-31 18:00:00 35. 27. 1000. 35.
2000-02-01 00:00:00 30. 27. 1000. 30.
2000-02-01 06:00:00 30. 27. 1000. 30.
2000-02-01 12:00:00 30. 27. 1000. 30.
2000-02-01 18:00:00 25. 27. 1000. 25.
2000-02-02 00:00:00 27. 1000.

top of page Links to source data

Source Source file Format
jtwc_sh bsh092000.txt ATCF
bom Newcyclonedatabase-08repair.csv:Line=19382:KIRRILY CSV file (from Excel file)
neumann tracks.sh:Storm=1183:KIRRILY:09S:BSH092000 HURDAT